createdAt,value
2019-05-05T00:48:08.804Z,9.00
2019-05-05T00:54:08.807Z,8.30
2019-05-05T01:00:08.815Z,7.60
2019-05-05T01:06:08.843Z,7.10
2019-05-05T01:12:08.792Z,6.00
2019-05-05T01:18:08.844Z,6.40
2019-05-05T01:24:08.923Z,6.60
2019-05-05T01:30:08.829Z,6.80
2019-05-05T01:36:08.783Z,7.30
2019-05-05T01:42:08.795Z,7.60
2019-05-05T01:48:08.821Z,8.40
2019-05-05T01:54:08.866Z,7.70
2019-05-05T02:00:08.846Z,7.50
2019-05-05T02:06:08.825Z,7.20
2019-05-05T02:12:08.859Z,6.70
2019-05-05T02:18:08.802Z,7.80
2019-05-05T02:24:08.812Z,7.50
2019-05-05T02:30:08.866Z,7.40
2019-05-05T02:36:08.864Z,8.00
2019-05-05T02:42:08.867Z,7.60
2019-05-05T02:48:08.817Z,7.80
2019-05-05T02:54:08.924Z,7.40
2019-05-05T03:00:08.829Z,7.90
2019-05-05T03:06:08.854Z,7.60
2019-05-05T03:12:10.983Z,7.90
2019-05-05T03:18:08.869Z,8.00
2019-05-05T03:24:08.870Z,8.20
2019-05-05T03:30:08.871Z,9.20
2019-05-05T03:36:08.894Z,8.80
2019-05-05T03:42:08.869Z,8.90
2019-05-05T03:48:08.875Z,8.60
2019-05-05T03:54:08.891Z,9.00
2019-05-05T04:00:08.834Z,9.50
2019-05-05T04:06:09.913Z,9.30
2019-05-05T04:12:08.887Z,9.30
2019-05-05T04:18:08.902Z,9.60
2019-05-05T04:24:10.260Z,9.00
2019-05-05T04:30:08.884Z,8.70
2019-05-05T04:36:08.861Z,7.80
2019-05-05T04:42:08.890Z,8.40
2019-05-05T04:48:09.903Z,8.50
2019-05-05T04:54:08.921Z,8.90
2019-05-05T05:00:08.933Z,8.40
2019-05-05T05:06:08.908Z,8.20
2019-05-05T05:12:08.907Z,7.30
2019-05-05T05:18:08.905Z,7.60
2019-05-05T05:24:08.918Z,7.90
2019-05-05T05:30:08.930Z,7.70
2019-05-05T05:36:09.959Z,8.20
2019-05-05T05:42:08.921Z,8.20
2019-05-05T05:48:08.953Z,8.60
2019-05-05T05:54:08.894Z,9.10
2019-05-05T06:00:08.891Z,9.70
2019-05-05T06:06:08.911Z,8.90
2019-05-05T06:12:08.942Z,8.10
2019-05-05T06:18:08.918Z,9.00
2019-05-05T06:24:10.663Z,8.50
2019-05-05T06:30:08.949Z,7.60
2019-05-05T06:36:08.958Z,7.40
2019-05-05T06:42:34.237Z,6.90
2019-05-05T06:48:09.017Z,7.00
2019-05-05T06:54:08.949Z,6.30
2019-05-05T07:00:08.985Z,6.10
2019-05-05T07:06:08.935Z,6.80
2019-05-05T07:12:08.974Z,6.50
2019-05-05T07:18:08.924Z,6.40
2019-05-05T07:24:09.078Z,6.80
2019-05-05T07:30:09.030Z,5.70
2019-05-05T07:36:08.977Z,5.80
2019-05-05T07:42:08.959Z,5.90
2019-05-05T07:48:08.971Z,4.60
2019-05-05T07:54:08.963Z,4.50
2019-05-05T08:00:08.986Z,4.70
2019-05-05T08:06:09.082Z,4.40
2019-05-05T08:12:08.953Z,5.00
2019-05-05T08:18:08.963Z,5.10
2019-05-05T08:24:08.990Z,4.50
2019-05-05T08:30:08.975Z,3.40
2019-05-05T08:36:08.989Z,4.30
2019-05-05T08:42:09.001Z,3.20
2019-05-05T08:48:08.991Z,3.10
2019-05-05T08:54:09.002Z,3.20
2019-05-05T09:00:08.982Z,3.80
2019-05-05T09:06:09.010Z,2.20
2019-05-05T09:12:09.025Z,3.10
2019-05-05T09:18:09.014Z,3.10
2019-05-05T09:24:09.033Z,2.60
2019-05-05T09:30:09.037Z,2.60
2019-05-05T09:36:09.042Z,3.10
2019-05-05T09:42:10.231Z,3.00
2019-05-05T09:48:09.072Z,2.90
2019-05-05T09:54:13.942Z,2.70
2019-05-05T10:00:09.058Z,2.80
2019-05-05T10:06:09.081Z,2.20
2019-05-05T10:12:09.090Z,2.70
2019-05-05T10:18:09.113Z,2.40
2019-05-05T10:24:09.081Z,2.30
2019-05-05T10:30:10.699Z,1.60
2019-05-05T10:36:09.222Z,1.90
2019-05-05T10:42:09.359Z,2.10
2019-05-05T10:48:09.138Z,2.00
2019-05-05T10:54:09.266Z,1.80
2019-05-05T11:00:12.467Z,1.80
2019-05-05T11:06:09.123Z,1.80
2019-05-05T11:12:09.192Z,4.20
2019-05-05T11:18:09.150Z,2.00
2019-05-05T11:24:09.245Z,2.60
2019-05-05T11:30:09.120Z,1.90
2019-05-05T11:36:09.167Z,1.90
2019-05-05T11:42:09.210Z,1.90
2019-05-05T11:48:09.206Z,2.00
2019-05-05T11:54:09.290Z,1.90
2019-05-05T12:00:09.158Z,1.90
2019-05-05T12:06:09.272Z,1.70
2019-05-05T12:12:10.220Z,2.10
2019-05-05T12:18:09.162Z,1.70
2019-05-05T12:24:09.259Z,2.00
2019-05-05T12:30:10.953Z,2.00
2019-05-05T12:36:09.284Z,2.20
2019-05-05T12:42:09.166Z,2.60
2019-05-05T12:48:09.260Z,2.60
2019-05-05T12:54:10.312Z,2.50
2019-05-05T13:00:09.207Z,2.60
2019-05-05T13:06:09.171Z,2.20
2019-05-05T13:12:09.254Z,2.60
2019-05-05T13:18:09.229Z,2.60
2019-05-05T13:24:09.253Z,2.10
2019-05-05T13:30:09.275Z,2.10
2019-05-05T13:36:09.220Z,2.40
2019-05-05T13:42:09.202Z,2.40
2019-05-05T13:48:09.209Z,5.00
2019-05-05T13:54:09.222Z,2.70
2019-05-05T14:00:09.234Z,2.50
2019-05-05T14:06:09.326Z,2.40
2019-05-05T14:12:09.321Z,2.40
2019-05-05T14:18:09.268Z,2.80
2019-05-05T14:24:09.233Z,2.90
2019-05-05T14:30:10.605Z,2.70
2019-05-05T14:36:09.307Z,2.80
2019-05-05T14:42:09.289Z,2.70
2019-05-05T14:48:09.274Z,2.50
2019-05-05T14:54:10.780Z,2.10
2019-05-05T15:00:10.268Z,2.30
2019-05-05T15:06:09.261Z,2.40
2019-05-05T15:12:09.278Z,2.70
2019-05-05T15:18:09.276Z,2.20
2019-05-05T15:24:09.322Z,2.40
2019-05-05T15:30:09.294Z,2.30
2019-05-05T15:36:09.307Z,2.40
2019-05-05T15:42:09.278Z,2.40
2019-05-05T15:48:09.427Z,2.90
2019-05-05T15:54:09.325Z,2.60
2019-05-05T16:00:09.330Z,2.60
2019-05-05T16:06:09.398Z,2.10
2019-05-05T16:12:10.414Z,2.50
2019-05-05T16:18:09.312Z,3.10
2019-05-05T16:24:09.306Z,2.70
2019-05-05T16:30:09.376Z,2.60
2019-05-05T16:36:09.450Z,3.10
2019-05-05T16:42:09.324Z,2.70
2019-05-05T16:48:09.313Z,2.50
2019-05-05T16:54:09.317Z,2.40
2019-05-05T17:00:09.441Z,2.90
2019-05-05T17:06:09.439Z,2.60
2019-05-05T17:12:09.409Z,2.30
2019-05-05T17:18:09.374Z,2.50
2019-05-05T17:24:09.372Z,2.40
2019-05-05T17:30:10.414Z,2.80
2019-05-05T17:36:09.459Z,3.00
2019-05-05T17:42:09.368Z,2.40
2019-05-05T17:48:09.428Z,2.40
2019-05-05T17:54:09.505Z,2.30
2019-05-05T18:00:09.379Z,2.50
2019-05-05T18:06:09.369Z,2.80
2019-05-05T18:12:09.406Z,2.50
2019-05-05T18:18:09.443Z,3.40
2019-05-05T18:24:09.335Z,2.60
2019-05-05T18:30:09.370Z,3.10
2019-05-05T18:36:09.382Z,3.40
2019-05-05T18:42:09.471Z,2.70
2019-05-05T18:48:09.397Z,2.70
2019-05-05T18:54:09.446Z,2.60
2019-05-05T19:00:09.412Z,2.70
2019-05-05T19:06:09.727Z,5.60
2019-05-05T19:12:10.331Z,3.50
2019-05-05T19:18:09.456Z,3.20
2019-05-05T19:24:09.949Z,3.00
2019-05-05T19:30:09.424Z,3.20
2019-05-05T19:36:09.712Z,8.60
2019-05-05T19:42:09.540Z,3.70
2019-05-05T19:48:09.452Z,3.20
2019-05-05T19:54:09.594Z,3.70
2019-05-05T20:00:09.488Z,4.10
2019-05-05T20:06:10.528Z,5.00
2019-05-05T20:12:11.636Z,4.70
2019-05-05T20:18:09.571Z,4.70
2019-05-05T20:24:09.462Z,5.00
2019-05-05T20:30:09.446Z,5.10
2019-05-05T20:36:09.968Z,5.50
2019-05-05T20:42:09.742Z,6.00
2019-05-05T20:48:09.468Z,5.60
2019-05-05T20:54:14.184Z,6.10
2019-05-05T21:00:14.070Z,5.50
2019-05-05T21:06:13.667Z,5.80
2019-05-05T21:12:09.472Z,5.50
2019-05-05T21:18:09.642Z,5.60
2019-05-05T21:24:09.473Z,5.30
2019-05-05T21:30:09.483Z,4.50
2019-05-05T21:36:09.539Z,5.40
2019-05-05T21:42:09.546Z,7.00
2019-05-05T21:48:09.542Z,8.20
2019-05-05T21:54:09.483Z,7.10
2019-05-05T22:00:09.509Z,5.00
2019-05-05T22:06:09.624Z,5.30
2019-05-05T22:12:09.504Z,5.30
2019-05-05T22:18:09.536Z,6.00
2019-05-05T22:24:09.541Z,5.20
2019-05-05T22:30:10.471Z,5.50
2019-05-05T22:36:09.499Z,4.90
2019-05-05T22:42:09.540Z,5.10
2019-05-05T22:48:09.870Z,4.80
2019-05-05T22:54:10.662Z,5.00
2019-05-05T23:00:22.567Z,5.30
2019-05-05T23:06:09.544Z,4.90
2019-05-05T23:12:09.515Z,5.30
2019-05-05T23:18:09.542Z,5.80
2019-05-05T23:24:09.552Z,5.60
2019-05-05T23:30:09.561Z,5.10
2019-05-05T23:36:10.613Z,5.30
2019-05-05T23:42:09.578Z,5.20
2019-05-05T23:48:09.545Z,5.30
2019-05-05T23:54:09.622Z,5.10
